createdAt,value
2022-08-19T00:03:59.650Z,23.70
2022-08-19T00:08:58.521Z,23.70
2022-08-19T00:13:57.605Z,23.60
2022-08-19T00:18:57.456Z,23.60
2022-08-19T00:23:58.714Z,23.50
2022-08-19T00:28:57.424Z,23.40
2022-08-19T00:33:57.281Z,23.40
2022-08-19T00:38:55.487Z,23.40
2022-08-19T00:44:03.216Z,23.30
2022-08-19T00:49:15.534Z,23.40
2022-08-19T00:54:14.526Z,23.30
2022-08-19T00:59:13.089Z,23.30
2022-08-19T01:04:12.836Z,23.30
2022-08-19T01:09:11.598Z,23.30
2022-08-19T01:14:11.301Z,23.20
2022-08-19T01:19:19.659Z,23.20
2022-08-19T01:24:19.522Z,23.30
2022-08-19T01:29:17.851Z,23.20
2022-08-19T01:34:16.286Z,23.20
2022-08-19T01:39:17.263Z,23.20
2022-08-19T01:44:19.146Z,23.10
2022-08-19T01:49:19.049Z,23.10
2022-08-19T01:54:22.928Z,23.10
2022-08-19T01:59:27.467Z,23.10
2022-08-19T02:04:26.498Z,23.10
2022-08-19T02:09:26.931Z,23.10
2022-08-19T02:14:26.583Z,23.00
2022-08-19T02:19:24.781Z,23.00
2022-08-19T02:24:23.025Z,23.00
2022-08-19T02:29:21.237Z,22.90
2022-08-19T02:34:22.171Z,22.90
2022-08-19T02:39:20.621Z,22.90
2022-08-19T02:44:30.163Z,22.90
2022-08-19T02:49:34.776Z,22.80
2022-08-19T02:54:33.177Z,22.80
2022-08-19T02:59:33.921Z,22.70
2022-08-19T03:04:33.632Z,22.70
2022-08-19T03:09:31.952Z,22.70
2022-08-19T03:14:32.739Z,22.70
2022-08-19T03:19:30.956Z,22.60
2022-08-19T03:24:31.646Z,22.60
2022-08-19T03:29:32.609Z,22.60
2022-08-19T03:34:33.544Z,22.60
2022-08-19T03:39:33.267Z,22.60
2022-08-19T03:44:33.332Z,22.60
2022-08-19T03:49:33.722Z,22.60
2022-08-19T03:54:33.692Z,22.60
2022-08-19T03:59:34.485Z,22.70
2022-08-19T04:04:32.797Z,22.60
2022-08-19T04:09:31.133Z,22.60
2022-08-19T04:14:32.657Z,22.60
2022-08-19T04:19:32.414Z,22.60
2022-08-19T04:24:30.670Z,22.60
2022-08-19T04:29:31.071Z,22.60
2022-08-19T04:34:31.159Z,22.60
2022-08-19T04:39:46.095Z,22.60
2022-08-19T04:44:46.371Z,22.50
2022-08-19T04:49:44.832Z,22.50
2022-08-19T04:54:43.107Z,22.50
2022-08-19T04:59:41.953Z,22.50
2022-08-19T05:04:41.689Z,22.50
2022-08-19T05:09:58.427Z,22.50
2022-08-19T05:14:58.035Z,22.50
2022-08-19T05:20:15.716Z,22.50
2022-08-19T05:25:19.517Z,22.40
2022-08-19T05:30:18.789Z,22.40
2022-08-19T05:35:34.627Z,22.40
2022-08-19T05:40:33.488Z,22.40
2022-08-19T05:45:32.015Z,22.50
2022-08-19T05:50:30.967Z,22.50
2022-08-19T05:55:30.615Z,22.50
2022-08-19T06:00:28.899Z,22.50
2022-08-19T06:05:27.443Z,22.50
2022-08-19T06:10:25.719Z,22.50
2022-08-19T06:15:28.979Z,22.50
2022-08-19T06:20:54.130Z,22.50
2022-08-19T06:25:45.434Z,22.50
2022-08-19T06:30:45.638Z,22.50
2022-08-19T06:40:47.185Z,22.60
2022-08-19T06:45:47.803Z,22.60
2022-08-19T06:50:46.113Z,22.60
2022-08-19T06:55:44.351Z,22.60
2022-08-19T07:00:43.045Z,22.60
2022-08-19T07:05:45.624Z,22.60
2022-08-19T07:10:46.494Z,22.60
2022-08-19T07:15:47.406Z,22.60
2022-08-19T07:20:47.259Z,22.60
2022-08-19T07:25:52.892Z,22.60
2022-08-19T07:30:51.956Z,22.60
2022-08-19T07:35:52.515Z,22.60
2022-08-19T07:40:52.283Z,22.60
2022-08-19T07:45:50.592Z,22.70
2022-08-19T07:50:54.089Z,22.70
2022-08-19T07:55:52.890Z,22.70
2022-08-19T08:00:52.538Z,22.70
2022-08-19T08:06:14.615Z,22.70
2022-08-19T08:11:13.410Z,22.60
2022-08-19T08:16:14.514Z,22.70
2022-08-19T08:21:14.292Z,22.70
2022-08-19T08:26:14.051Z,22.70
2022-08-19T08:31:14.280Z,22.70
2022-08-19T08:36:15.869Z,22.70
2022-08-19T08:41:21.449Z,22.70
2022-08-19T08:46:30.548Z,22.70
2022-08-19T08:51:36.512Z,22.70
2022-08-19T08:56:35.838Z,22.70
2022-08-19T09:01:34.500Z,22.70
2022-08-19T09:06:46.154Z,22.70
2022-08-19T09:11:57.620Z,22.70
2022-08-19T09:16:55.862Z,22.70
2022-08-19T09:21:55.577Z,22.70
2022-08-19T09:26:55.291Z,22.70
2022-08-19T09:31:55.820Z,22.70
2022-08-19T09:36:56.196Z,22.70
2022-08-19T09:41:54.996Z,22.70
2022-08-19T09:46:57.032Z,22.70
2022-08-19T09:51:57.336Z,22.70
2022-08-19T09:56:56.388Z,22.80
2022-08-19T10:01:54.809Z,22.70
2022-08-19T10:07:03.422Z,22.80
2022-08-19T10:12:06.067Z,22.80
2022-08-19T10:17:19.308Z,22.80
2022-08-19T10:22:21.739Z,22.80
2022-08-19T10:27:19.941Z,22.80
2022-08-19T10:32:18.453Z,22.80
2022-08-19T10:37:32.561Z,22.80
2022-08-19T10:42:32.161Z,22.80
2022-08-19T10:47:31.748Z,22.90
2022-08-19T10:52:39.054Z,22.90
2022-08-19T10:58:02.332Z,23.00
2022-08-19T11:02:56.760Z,23.00
2022-08-19T11:07:56.514Z,23.10
2022-08-19T11:12:55.250Z,23.10
2022-08-19T11:17:55.530Z,23.20
2022-08-19T11:22:54.746Z,23.20
2022-08-19T11:27:54.486Z,23.20
2022-08-19T11:32:52.856Z,23.30
2022-08-19T11:37:51.031Z,23.40
2022-08-19T11:42:57.886Z,23.50
2022-08-19T11:47:58.164Z,23.50
2022-08-19T11:52:57.390Z,23.40
2022-08-19T11:57:55.821Z,23.70
2022-08-19T12:02:55.750Z,23.70
2022-08-19T12:07:55.781Z,23.80
2022-08-19T12:12:58.652Z,23.90
2022-08-19T12:17:57.633Z,23.90
2022-08-19T12:22:57.220Z,24.10
2022-08-19T12:27:57.568Z,24.00
2022-08-19T12:32:56.549Z,24.10
2022-08-19T12:37:57.844Z,24.10
2022-08-19T12:42:56.412Z,24.20
2022-08-19T12:47:55.351Z,24.20
2022-08-19T12:52:53.826Z,24.30
2022-08-19T12:57:53.497Z,24.30
2022-08-19T13:02:54.192Z,24.30
2022-08-19T13:07:56.799Z,24.40
2022-08-19T13:12:57.003Z,24.50
2022-08-19T13:17:56.924Z,24.60
2022-08-19T13:22:58.111Z,24.70
2022-08-19T13:27:57.701Z,24.80
2022-08-19T13:33:16.103Z,24.90
2022-08-19T13:38:16.487Z,25.00
2022-08-19T13:43:22.842Z,25.10
2022-08-19T13:48:21.783Z,25.30
2022-08-19T13:53:20.151Z,25.50
2022-08-19T13:58:19.856Z,25.70
2022-08-19T14:03:18.074Z,25.90
2022-08-19T14:08:16.290Z,26.10
2022-08-19T14:13:17.389Z,26.30
2022-08-19T14:18:17.626Z,26.50
2022-08-19T14:23:16.214Z,26.60
2022-08-19T14:28:14.422Z,26.70
2022-08-19T14:33:12.693Z,26.70
2022-08-19T14:38:18.314Z,26.70
2022-08-19T14:43:20.415Z,26.70
2022-08-19T14:48:19.377Z,26.70
2022-08-19T14:53:19.921Z,26.70
2022-08-19T14:58:29.312Z,26.80
2022-08-19T15:03:28.863Z,26.80
2022-08-19T15:08:30.485Z,26.80
2022-08-19T15:13:29.961Z,26.80
2022-08-19T15:18:28.217Z,26.80
2022-08-19T15:23:26.463Z,26.80
2022-08-19T15:28:27.444Z,26.90
2022-08-19T15:33:26.878Z,27.00
2022-08-19T15:38:26.902Z,27.10
2022-08-19T15:43:26.485Z,27.10
2022-08-19T15:48:24.772Z,27.10
2022-08-19T15:53:23.053Z,27.20
2022-08-19T15:58:38.772Z,27.20
2022-08-19T16:03:56.748Z,27.20
2022-08-19T16:08:55.844Z,27.20
2022-08-19T16:13:55.712Z,27.10
2022-08-19T16:18:58.322Z,27.00
2022-08-19T16:23:57.623Z,27.00
2022-08-19T16:28:56.335Z,26.90
2022-08-19T16:33:57.359Z,26.90
2022-08-19T16:38:57.166Z,26.80
2022-08-19T16:43:55.681Z,26.80
2022-08-19T16:48:53.913Z,26.80
2022-08-19T16:53:53.594Z,26.80
2022-08-19T16:58:53.908Z,26.80
2022-08-19T17:03:52.994Z,26.80
2022-08-19T17:08:52.965Z,26.70
2022-08-19T17:13:53.078Z,26.70
2022-08-19T17:18:52.351Z,26.70
2022-08-19T17:23:50.959Z,26.70
2022-08-19T17:28:50.181Z,26.70
2022-08-19T17:33:49.868Z,26.60
2022-08-19T17:38:49.129Z,26.50
2022-08-19T17:43:47.389Z,26.50
2022-08-19T17:48:51.475Z,26.40
2022-08-19T17:53:53.633Z,26.40
2022-08-19T17:58:59.978Z,26.30
2022-08-19T18:03:59.041Z,26.20
2022-08-19T18:08:58.764Z,26.20
2022-08-19T18:13:57.429Z,26.10
2022-08-19T18:18:55.716Z,26.10
2022-08-19T18:23:55.200Z,26.00
2022-08-19T18:29:01.948Z,25.90
2022-08-19T18:34:00.326Z,25.80
2022-08-19T18:39:15.689Z,25.80
2022-08-19T18:44:32.873Z,25.70
2022-08-19T18:49:33.833Z,25.60
2022-08-19T18:54:34.454Z,25.50
2022-08-19T18:59:36.970Z,25.40
2022-08-19T19:04:38.583Z,25.30
2022-08-19T19:09:37.457Z,25.20
2022-08-19T19:14:49.202Z,25.10
2022-08-19T19:19:48.009Z,25.00
2022-08-19T19:24:46.540Z,24.90
2022-08-19T19:29:49.680Z,24.80
2022-08-19T19:34:50.292Z,24.70
2022-08-19T19:39:48.619Z,24.60
2022-08-19T19:44:49.299Z,24.50
2022-08-19T19:55:15.605Z,24.30
2022-08-19T20:00:18.483Z,24.20
2022-08-19T20:05:16.847Z,24.10
2022-08-19T20:10:15.161Z,23.90
2022-08-19T20:15:15.525Z,23.80
2022-08-19T20:20:15.501Z,23.70
2022-08-19T20:25:15.874Z,23.60
2022-08-19T20:30:19.293Z,23.60
2022-08-19T20:35:21.379Z,23.50
2022-08-19T20:40:21.719Z,23.40
2022-08-19T20:45:33.183Z,23.30
2022-08-19T20:50:32.845Z,23.20
2022-08-19T20:55:31.078Z,23.10
2022-08-19T21:00:31.218Z,23.10
2022-08-19T21:05:30.731Z,23.00
2022-08-19T21:10:29.085Z,23.00
2022-08-19T21:15:27.442Z,22.90
2022-08-19T21:20:27.040Z,22.90
2022-08-19T21:25:27.809Z,22.80
2022-08-19T21:30:26.287Z,22.80
2022-08-19T21:35:26.254Z,22.70
2022-08-19T21:40:25.334Z,22.60
2022-08-19T21:45:24.410Z,22.60
2022-08-19T21:50:25.857Z,22.50
2022-08-19T21:55:28.395Z,22.50
2022-08-19T22:00:28.776Z,22.50
2022-08-19T22:05:31.362Z,22.50
2022-08-19T22:10:34.371Z,22.50
2022-08-19T22:15:33.136Z,22.40
2022-08-19T22:20:33.081Z,22.40
2022-08-19T22:25:34.559Z,22.40
2022-08-19T22:30:34.135Z,22.30
2022-08-19T22:35:37.578Z,22.30
2022-08-19T22:40:39.916Z,22.30
2022-08-19T22:45:38.263Z,22.20
2022-08-19T22:50:36.996Z,22.20
2022-08-19T22:55:40.273Z,22.20
2022-08-19T23:00:38.707Z,22.20
2022-08-19T23:05:37.101Z,22.10
2022-08-19T23:10:39.892Z,22.10
2022-08-19T23:15:38.197Z,22.10
2022-08-19T23:20:38.734Z,22.00
2022-08-19T23:25:39.964Z,22.00
2022-08-19T23:30:43.739Z,22.00
2022-08-19T23:35:42.099Z,22.00
2022-08-19T23:40:41.939Z,21.90
2022-08-19T23:45:50.900Z,21.90
2022-08-19T23:50:49.914Z,21.80
2022-08-19T23:55:50.275Z,21.80
